sensor_id;sensor_type;location;lat;lon;timestamp;temperature;humidity
16663;DHT22;8445;51.270;9.434;2023-07-29T04:09:55;23.00;65.20
16663;DHT22;8445;51.270;9.434;2023-07-29T04:12:20;22.30;78.60
16663;DHT22;8445;51.270;9.434;2023-07-29T04:14:47;20.30;96.90
16663;DHT22;8445;51.270;9.434;2023-07-29T04:17:13;19.40;99.90
16663;DHT22;8445;51.270;9.434;2023-07-29T04:19:38;19.00;99.90
16663;DHT22;8445;51.270;9.434;2023-07-29T04:22:04;18.70;99.90
16663;DHT22;8445;51.270;9.434;2023-07-29T04:24:31;18.50;99.90
16663;DHT22;8445;51.270;9.434;2023-07-29T04:26:56;18.40;99.90
16663;DHT22;8445;51.270;9.434;2023-07-29T04:29:22;18.40;99.90
16663;DHT22;8445;51.270;9.434;2023-07-29T04:31:49;18.30;99.90
16663;DHT22;8445;51.270;9.434;2023-07-29T04:34:15;18.30;99.90
16663;DHT22;8445;51.270;9.434;2023-07-29T04:36:41;18.20;99.90
16663;DHT22;8445;51.270;9.434;2023-07-29T04:39:07;18.20;99.90
16663;DHT22;8445;51.270;9.434;2023-07-29T04:41:33;18.20;99.90
16663;DHT22;8445;51.270;9.434;2023-07-29T04:43:59;18.20;99.90
16663;DHT22;8445;51.270;9.434;2023-07-29T04:46:24;18.20;99.90
16663;DHT22;8445;51.270;9.434;2023-07-29T04:48:50;18.10;99.90
16663;DHT22;8445;51.270;9.434;2023-07-29T04:51:16;18.20;99.90
16663;DHT22;8445;51.270;9.434;2023-07-29T04:53:42;18.20;99.90
16663;DHT22;8445;51.270;9.434;2023-07-29T04:56:07;18.20;99.90
16663;DHT22;8445;51.270;9.434;2023-07-29T04:58:33;18.20;99.90
16663;DHT22;8445;51.270;9.434;2023-07-29T05:01:04;18.30;99.90
16663;DHT22;8445;51.270;9.434;2023-07-29T05:03:30;18.30;99.90
16663;DHT22;8445;51.270;9.434;2023-07-29T05:06:03;18.40;99.90
16663;DHT22;8445;51.270;9.434;2023-07-29T05:11:07;18.50;99.90
16663;DHT22;8445;51.270;9.434;2023-07-29T05:13:33;18.80;99.90
16663;DHT22;8445;51.270;9.434;2023-07-29T05:15:59;18.80;99.90
16663;DHT22;8445;51.270;9.434;2023-07-29T05:18:25;18.80;99.90
16663;DHT22;8445;51.270;9.434;2023-07-29T05:20:51;18.80;99.90
16663;DHT22;8445;51.270;9.434;2023-07-29T05:23:17;18.70;99.90
16663;DHT22;8445;51.270;9.434;2023-07-29T05:25:43;18.70;99.90
16663;DHT22;8445;51.270;9.434;2023-07-29T05:28:09;18.70;99.90
16663;DHT22;8445;51.270;9.434;2023-07-29T05:30:35;18.70;99.90
16663;DHT22;8445;51.270;9.434;2023-07-29T05:33:05;18.80;99.90
16663;DHT22;8445;51.270;9.434;2023-07-29T05:35:33;18.80;99.90
16663;DHT22;8445;51.270;9.434;2023-07-29T05:37:59;18.80;99.90
16663;DHT22;8445;51.270;9.434;2023-07-29T05:40:25;18.90;99.90
16663;DHT22;8445;51.270;9.434;2023-07-29T05:42:52;18.90;99.90
16663;DHT22;8445;51.270;9.434;2023-07-29T05:45:18;19.20;99.90
16663;DHT22;8445;51.270;9.434;2023-07-29T05:47:43;19.40;99.90
16663;DHT22;8445;51.270;9.434;2023-07-29T05:50:09;19.50;99.90
16663;DHT22;8445;51.270;9.434;2023-07-29T05:52:36;19.70;99.90
16663;DHT22;8445;51.270;9.434;2023-07-29T05:55:03;19.80;99.90
16663;DHT22;8445;51.270;9.434;2023-07-29T05:57:29;19.90;99.90
16663;DHT22;8445;51.270;9.434;2023-07-29T05:59:55;20.10;99.90
16663;DHT22;8445;51.270;9.434;2023-07-29T06:02:21;20.40;99.90
16663;DHT22;8445;51.270;9.434;2023-07-29T06:04:47;20.60;99.90
16663;DHT22;8445;51.270;9.434;2023-07-29T06:07:13;20.70;99.90
16663;DHT22;8445;51.270;9.434;2023-07-29T06:09:39;20.80;99.90
16663;DHT22;8445;51.270;9.434;2023-07-29T06:12:06;20.80;99.90
16663;DHT22;8445;51.270;9.434;2023-07-29T06:14:32;20.70;99.90
16663;DHT22;8445;51.270;9.434;2023-07-29T06:16:58;20.80;99.90
16663;DHT22;8445;51.270;9.434;2023-07-29T06:19:24;21.00;99.90
16663;DHT22;8445;51.270;9.434;2023-07-29T06:21:55;21.10;99.90
16663;DHT22;8445;51.270;9.434;2023-07-29T06:24:21;21.20;99.90
16663;DHT22;8445;51.270;9.434;2023-07-29T06:26:47;21.40;99.90
16663;DHT22;8445;51.270;9.434;2023-07-29T06:29:13;21.70;99.90
16663;DHT22;8445;51.270;9.434;2023-07-29T06:31:39;22.10;99.90
16663;DHT22;8445;51.270;9.434;2023-07-29T06:34:05;22.20;99.90
16663;DHT22;8445;51.270;9.434;2023-07-29T06:36:31;22.20;99.90
16663;DHT22;8445;51.270;9.434;2023-07-29T06:38:56;22.20;99.90
16663;DHT22;8445;51.270;9.434;2023-07-29T06:41:22;22.10;99.90
16663;DHT22;8445;51.270;9.434;2023-07-29T06:43:53;21.90;99.90
16663;DHT22;8445;51.270;9.434;2023-07-29T06:46:19;21.70;99.90
16663;DHT22;8445;51.270;9.434;2023-07-29T06:48:45;21.50;99.90
16663;DHT22;8445;51.270;9.434;2023-07-29T06:51:11;21.30;99.90
16663;DHT22;8445;51.270;9.434;2023-07-29T06:53:37;21.20;99.90
16663;DHT22;8445;51.270;9.434;2023-07-29T06:56:03;21.10;99.90
16663;DHT22;8445;51.270;9.434;2023-07-29T06:58:30;21.00;99.90
16663;DHT22;8445;51.270;9.434;2023-07-29T07:00:56;20.90;99.90
16663;DHT22;8445;51.270;9.434;2023-07-29T07:03:22;20.80;99.90
16663;DHT22;8445;51.270;9.434;2023-07-29T07:05:47;20.80;99.90
16663;DHT22;8445;51.270;9.434;2023-07-29T07:08:13;20.90;99.90
16663;DHT22;8445;51.270;9.434;2023-07-29T07:10:39;21.10;99.90
16663;DHT22;8445;51.270;9.434;2023-07-29T07:13:05;21.40;99.90
16663;DHT22;8445;51.270;9.434;2023-07-29T07:15:31;21.80;99.90
16663;DHT22;8445;51.270;9.434;2023-07-29T07:17:57;22.00;99.90
16663;DHT22;8445;51.270;9.434;2023-07-29T07:20:23;22.20;99.90
16663;DHT22;8445;51.270;9.434;2023-07-29T07:22:49;22.30;99.90
16663;DHT22;8445;51.270;9.434;2023-07-29T07:25:15;22.30;99.90
16663;DHT22;8445;51.270;9.434;2023-07-29T07:27:41;22.20;99.90
16663;DHT22;8445;51.270;9.434;2023-07-29T07:30:07;22.10;99.90
16663;DHT22;8445;51.270;9.434;2023-07-29T07:32:33;21.90;99.90
16663;DHT22;8445;51.270;9.434;2023-07-29T07:34:59;21.70;99.90
16663;DHT22;8445;51.270;9.434;2023-07-29T07:37:25;21.70;99.90
16663;DHT22;8445;51.270;9.434;2023-07-29T07:39:51;21.60;99.90
16663;DHT22;8445;51.270;9.434;2023-07-29T07:42:17;21.70;99.90
16663;DHT22;8445;51.270;9.434;2023-07-29T07:44:43;21.70;99.90
16663;DHT22;8445;51.270;9.434;2023-07-29T07:47:08;21.70;99.90
16663;DHT22;8445;51.270;9.434;2023-07-29T07:49:34;21.60;99.90
16663;DHT22;8445;51.270;9.434;2023-07-29T07:52:00;21.60;99.90
16663;DHT22;8445;51.270;9.434;2023-07-29T07:54:26;21.60;99.90
16663;DHT22;8445;51.270;9.434;2023-07-29T07:56:52;21.60;99.90
16663;DHT22;8445;51.270;9.434;2023-07-29T07:59:18;21.70;99.90
16663;DHT22;8445;51.270;9.434;2023-07-29T08:01:44;21.70;99.90
16663;DHT22;8445;51.270;9.434;2023-07-29T08:04:10;21.70;99.90
16663;DHT22;8445;51.270;9.434;2023-07-29T08:06:36;21.80;99.90
16663;DHT22;8445;51.270;9.434;2023-07-29T08:09:02;22.00;99.90
16663;DHT22;8445;51.270;9.434;2023-07-29T08:11:28;22.20;99.90
16663;DHT22;8445;51.270;9.434;2023-07-29T08:13:54;22.50;99.90
16663;DHT22;8445;51.270;9.434;2023-07-29T08:16:20;22.90;99.90
16663;DHT22;8445;51.270;9.434;2023-07-29T08:18:46;23.20;99.90
16663;DHT22;8445;51.270;9.434;2023-07-29T08:21:12;23.30;99.90
16663;DHT22;8445;51.270;9.434;2023-07-29T08:23:38;23.30;99.90
16663;DHT22;8445;51.270;9.434;2023-07-29T08:26:05;23.20;99.90
16663;DHT22;8445;51.270;9.434;2023-07-29T08:28:33;23.20;99.90
16663;DHT22;8445;51.270;9.434;2023-07-29T08:31:01;23.30;99.90
16663;DHT22;8445;51.270;9.434;2023-07-29T08:33:27;23.20;99.90
16663;DHT22;8445;51.270;9.434;2023-07-29T08:35:54;23.30;99.90
16663;DHT22;8445;51.270;9.434;2023-07-29T08:38:20;23.50;99.90
16663;DHT22;8445;51.270;9.434;2023-07-29T08:40:54;23.60;99.90
16663;DHT22;8445;51.270;9.434;2023-07-29T08:44:06;23.60;99.90
16663;DHT22;8445;51.270;9.434;2023-07-29T08:46:33;23.40;99.90
16663;DHT22;8445;51.270;9.434;2023-07-29T08:48:59;23.20;99.90
16663;DHT22;8445;51.270;9.434;2023-07-29T08:51:27;23.10;99.90
16663;DHT22;8445;51.270;9.434;2023-07-29T08:53:55;23.10;99.90
16663;DHT22;8445;51.270;9.434;2023-07-29T08:56:21;23.20;99.90
16663;DHT22;8445;51.270;9.434;2023-07-29T08:58:48;23.40;99.90
16663;DHT22;8445;51.270;9.434;2023-07-29T09:01:15;23.80;99.90
16663;DHT22;8445;51.270;9.434;2023-07-29T09:03:41;24.30;99.90
16663;DHT22;8445;51.270;9.434;2023-07-29T09:06:08;24.70;99.90
16663;DHT22;8445;51.270;9.434;2023-07-29T09:08:34;24.90;99.90
16663;DHT22;8445;51.270;9.434;2023-07-29T09:11:01;25.00;99.90
16663;DHT22;8445;51.270;9.434;2023-07-29T09:13:27;24.80;99.90
16663;DHT22;8445;51.270;9.434;2023-07-29T09:15:55;24.60;99.90
16663;DHT22;8445;51.270;9.434;2023-07-29T09:18:23;24.70;99.90
16663;DHT22;8445;51.270;9.434;2023-07-29T09:20:53;24.90;99.90
16663;DHT22;8445;51.270;9.434;2023-07-29T09:23:19;25.00;99.90
16663;DHT22;8445;51.270;9.434;2023-07-29T09:25:48;24.90;99.90
16663;DHT22;8445;51.270;9.434;2023-07-29T09:28:15;24.80;99.90
16663;DHT22;8445;51.270;9.434;2023-07-29T09:30:45;24.70;99.90
16663;DHT22;8445;51.270;9.434;2023-07-29T09:33:11;24.50;99.90
16663;DHT22;8445;51.270;9.434;2023-07-29T09:35:38;24.20;99.90
16663;DHT22;8445;51.270;9.434;2023-07-29T09:38:05;24.10;99.90
16663;DHT22;8445;51.270;9.434;2023-07-29T09:40:36;24.20;99.90
16663;DHT22;8445;51.270;9.434;2023-07-29T09:43:04;24.20;99.90
16663;DHT22;8445;51.270;9.434;2023-07-29T09:45:34;24.30;99.90
16663;DHT22;8445;51.270;9.434;2023-07-29T09:48:01;24.30;99.90
16663;DHT22;8445;51.270;9.434;2023-07-29T09:50:29;24.30;99.90
16663;DHT22;8445;51.270;9.434;2023-07-29T09:52:55;24.30;99.90
16663;DHT22;8445;51.270;9.434;2023-07-29T09:55:24;24.20;99.90
16663;DHT22;8445;51.270;9.434;2023-07-29T09:57:57;24.30;99.90
16663;DHT22;8445;51.270;9.434;2023-07-29T10:00:28;24.20;99.90
16663;DHT22;8445;51.270;9.434;2023-07-29T10:02:54;24.20;99.90
16663;DHT22;8445;51.270;9.434;2023-07-29T10:05:22;24.60;99.90
16663;DHT22;8445;51.270;9.434;2023-07-29T10:07:51;25.00;99.90
16663;DHT22;8445;51.270;9.434;2023-07-29T10:10:17;25.20;98.30
16663;DHT22;8445;51.270;9.434;2023-07-29T10:12:44;25.30;97.60
16663;DHT22;8445;51.270;9.434;2023-07-29T10:15:10;25.40;97.10
16663;DHT22;8445;51.270;9.434;2023-07-29T10:17:37;25.50;96.20
16663;DHT22;8445;51.270;9.434;2023-07-29T10:20:06;25.50;95.40
16663;DHT22;8445;51.270;9.434;2023-07-29T10:22:39;25.40;95.10
16663;DHT22;8445;51.270;9.434;2023-07-29T10:25:18;25.40;94.90
16663;DHT22;8445;51.270;9.434;2023-07-29T10:28:00;25.60;95.00
16663;DHT22;8445;51.270;9.434;2023-07-29T10:30:31;26.00;94.40
16663;DHT22;8445;51.270;9.434;2023-07-29T10:33:04;26.50;94.40
16663;DHT22;8445;51.270;9.434;2023-07-29T10:35:35;27.00;92.90
16663;DHT22;8445;51.270;9.434;2023-07-29T10:38:03;27.30;81.50
16663;DHT22;8445;51.270;9.434;2023-07-29T10:40:47;27.50;90.70
16663;DHT22;8445;51.270;9.434;2023-07-29T10:43:29;27.40;80.80
16663;DHT22;8445;51.270;9.434;2023-07-29T10:46:15;27.30;88.50
16663;DHT22;8445;51.270;9.434;2023-07-29T10:48:56;27.20;84.10
16663;DHT22;8445;51.270;9.434;2023-07-29T10:54:02;26.80;77.20
16663;DHT22;8445;51.270;9.434;2023-07-29T10:56:34;26.60;84.60
16663;DHT22;8445;51.270;9.434;2023-07-29T11:01:40;26.40;84.60
16663;DHT22;8445;51.270;9.434;2023-07-29T11:09:51;26.40;83.90
16663;DHT22;8445;51.270;9.434;2023-07-29T11:12:38;26.40;84.00
16663;DHT22;8445;51.270;9.434;2023-07-29T11:15:18;26.20;79.40
16663;DHT22;8445;51.270;9.434;2023-07-29T11:17:53;26.10;82.10
16663;DHT22;8445;51.270;9.434;2023-07-29T11:20:31;26.10;76.00
16663;DHT22;8445;51.270;9.434;2023-07-29T11:23:00;26.10;80.40
16663;DHT22;8445;51.270;9.434;2023-07-29T11:25:29;26.10;80.40
16663;DHT22;8445;51.270;9.434;2023-07-29T11:27:57;26.10;77.50
16663;DHT22;8445;51.270;9.434;2023-07-29T11:30:24;26.10;76.00
16663;DHT22;8445;51.270;9.434;2023-07-29T11:32:56;26.30;76.50
16663;DHT22;8445;51.270;9.434;2023-07-29T11:35:23;26.50;76.50
16663;DHT22;8445;51.270;9.434;2023-07-29T11:37:51;26.60;74.20
16663;DHT22;8445;51.270;9.434;2023-07-29T11:40:21;26.80;73.70
16663;DHT22;8445;51.270;9.434;2023-07-29T11:42:49;27.10;74.00
16663;DHT22;8445;51.270;9.434;2023-07-29T11:45:16;27.40;72.30
16663;DHT22;8445;51.270;9.434;2023-07-29T11:47:44;27.60;71.90
16663;DHT22;8445;51.270;9.434;2023-07-29T11:50:11;27.80;70.00
16663;DHT22;8445;51.270;9.434;2023-07-29T11:52:42;28.00;68.20
16663;DHT22;8445;51.270;9.434;2023-07-29T11:55:10;28.20;68.70
16663;DHT22;8445;51.270;9.434;2023-07-29T11:57:38;28.60;67.30
16663;DHT22;8445;51.270;9.434;2023-07-29T12:00:06;28.70;66.10
16663;DHT22;8445;51.270;9.434;2023-07-29T12:02:40;28.90;64.20
16663;DHT22;8445;51.270;9.434;2023-07-29T12:05:10;29.10;60.50
16663;DHT22;8445;51.270;9.434;2023-07-29T12:07:42;29.00;62.10
16663;DHT22;8445;51.270;9.434;2023-07-29T12:10:10;29.00;60.10
16663;DHT22;8445;51.270;9.434;2023-07-29T12:12:49;29.00;60.40
16663;DHT22;8445;51.270;9.434;2023-07-29T12:15:26;29.00;50.60
16663;DHT22;8445;51.270;9.434;2023-07-29T12:17:57;28.90;55.70
16663;DHT22;8445;51.270;9.434;2023-07-29T12:20:28;28.80;55.70
16663;DHT22;8445;51.270;9.434;2023-07-29T12:22:59;28.50;55.70
16663;DHT22;8445;51.270;9.434;2023-07-29T12:25:30;28.30;53.90
16663;DHT22;8445;51.270;9.434;2023-07-29T12:28:01;28.00;53.90
16663;DHT22;8445;51.270;9.434;2023-07-29T12:30:28;27.70;53.30
16663;DHT22;8445;51.270;9.434;2023-07-29T12:32:54;27.50;54.20
16663;DHT22;8445;51.270;9.434;2023-07-29T12:35:20;27.30;54.10
16663;DHT22;8445;51.270;9.434;2023-07-29T12:37:46;27.30;53.70
16663;DHT22;8445;51.270;9.434;2023-07-29T12:40:25;27.30;54.20
16663;DHT22;8445;51.270;9.434;2023-07-29T12:42:52;27.30;50.50
16663;DHT22;8445;51.270;9.434;2023-07-29T12:45:18;27.50;53.70
16663;DHT22;8445;51.270;9.434;2023-07-29T12:47:45;27.70;53.20
16663;DHT22;8445;51.270;9.434;2023-07-29T12:50:11;27.90;52.70
16663;DHT22;8445;51.270;9.434;2023-07-29T12:52:37;27.80;51.00
16663;DHT22;8445;51.270;9.434;2023-07-29T12:55:03;27.70;51.40
16663;DHT22;8445;51.270;9.434;2023-07-29T12:57:29;27.60;51.10
16663;DHT22;8445;51.270;9.434;2023-07-29T12:59:55;27.60;51.50
16663;DHT22;8445;51.270;9.434;2023-07-29T13:02:21;27.60;51.70
16663;DHT22;8445;51.270;9.434;2023-07-29T13:04:47;27.70;52.20
16663;DHT22;8445;51.270;9.434;2023-07-29T13:07:13;27.60;51.50
16663;DHT22;8445;51.270;9.434;2023-07-29T13:09:39;27.60;51.60
16663;DHT22;8445;51.270;9.434;2023-07-29T13:12:05;27.60;51.00
16663;DHT22;8445;51.270;9.434;2023-07-29T13:14:31;27.50;50.80
16663;DHT22;8445;51.270;9.434;2023-07-29T13:16:57;27.40;50.80
16663;DHT22;8445;51.270;9.434;2023-07-29T13:19:23;27.50;51.40
16663;DHT22;8445;51.270;9.434;2023-07-29T13:21:48;27.70;51.10
16663;DHT22;8445;51.270;9.434;2023-07-29T13:24:14;27.90;51.10
16663;DHT22;8445;51.270;9.434;2023-07-29T13:26:40;28.00;50.70
16663;DHT22;8445;51.270;9.434;2023-07-29T13:29:07;27.90;50.30
16663;DHT22;8445;51.270;9.434;2023-07-29T13:31:33;27.70;50.00
16663;DHT22;8445;51.270;9.434;2023-07-29T13:33:59;27.40;50.70
16663;DHT22;8445;51.270;9.434;2023-07-29T13:36:25;27.40;51.80
16663;DHT22;8445;51.270;9.434;2023-07-29T13:38:51;27.40;51.30
16663;DHT22;8445;51.270;9.434;2023-07-29T13:41:16;27.40;51.30
16663;DHT22;8445;51.270;9.434;2023-07-29T13:43:42;27.60;50.70
16663;DHT22;8445;51.270;9.434;2023-07-29T13:46:08;27.90;50.50
16663;DHT22;8445;51.270;9.434;2023-07-29T13:48:34;28.10;50.10
16663;DHT22;8445;51.270;9.434;2023-07-29T13:51:01;28.20;49.50
16663;DHT22;8445;51.270;9.434;2023-07-29T13:53:27;28.20;48.40
16663;DHT22;8445;51.270;9.434;2023-07-29T13:55:53;28.20;48.30
16663;DHT22;8445;51.270;9.434;2023-07-29T13:58:19;28.40;49.10
16663;DHT22;8445;51.270;9.434;2023-07-29T14:00:45;28.40;47.20
16663;DHT22;8445;51.270;9.434;2023-07-29T14:03:11;28.40;46.30
16663;DHT22;8445;51.270;9.434;2023-07-29T14:05:37;28.40;46.40
16663;DHT22;8445;51.270;9.434;2023-07-29T14:08:02;28.20;46.10
16663;DHT22;8445;51.270;9.434;2023-07-29T14:10:28;28.10;46.30
16663;DHT22;8445;51.270;9.434;2023-07-29T14:12:57;28.10;46.90
16663;DHT22;8445;51.270;9.434;2023-07-29T14:15:22;28.00;46.30
16663;DHT22;8445;51.270;9.434;2023-07-29T14:17:51;27.80;47.20
16663;DHT22;8445;51.270;9.434;2023-07-29T14:20:17;27.80;45.80
16663;DHT22;8445;51.270;9.434;2023-07-29T14:22:43;27.70;46.30
16663;DHT22;8445;51.270;9.434;2023-07-29T14:25:09;27.70;46.90
16663;DHT22;8445;51.270;9.434;2023-07-29T14:27:35;27.70;46.70
16663;DHT22;8445;51.270;9.434;2023-07-29T14:30:01;27.70;46.60
16663;DHT22;8445;51.270;9.434;2023-07-29T14:32:27;27.50;46.50
16663;DHT22;8445;51.270;9.434;2023-07-29T14:34:53;27.40;46.20
16663;DHT22;8445;51.270;9.434;2023-07-29T14:37:19;27.20;46.70
16663;DHT22;8445;51.270;9.434;2023-07-29T14:39:45;27.20;47.00
16663;DHT22;8445;51.270;9.434;2023-07-29T14:42:11;27.30;46.50
16663;DHT22;8445;51.270;9.434;2023-07-29T14:44:37;27.40;47.10
16663;DHT22;8445;51.270;9.434;2023-07-29T14:47:03;27.60;47.00
16663;DHT22;8445;51.270;9.434;2023-07-29T14:49:29;27.80;46.90
16663;DHT22;8445;51.270;9.434;2023-07-29T14:51:55;27.90;46.60
16663;DHT22;8445;51.270;9.434;2023-07-29T14:54:21;28.00;47.00
16663;DHT22;8445;51.270;9.434;2023-07-29T14:56:46;28.30;46.90
16663;DHT22;8445;51.270;9.434;2023-07-29T14:59:12;28.40;46.00
16663;DHT22;8445;51.270;9.434;2023-07-29T15:01:38;28.20;45.90
16663;DHT22;8445;51.270;9.434;2023-07-29T15:04:04;27.80;45.70
16663;DHT22;8445;51.270;9.434;2023-07-29T15:06:30;27.40;46.00
16663;DHT22;8445;51.270;9.434;2023-07-29T15:08:56;26.90;47.00
16663;DHT22;8445;51.270;9.434;2023-07-29T15:11:22;26.70;47.50
16663;DHT22;8445;51.270;9.434;2023-07-29T15:13:48;26.50;47.30
16663;DHT22;8445;51.270;9.434;2023-07-29T15:16:13;26.50;47.90
16663;DHT22;8445;51.270;9.434;2023-07-29T15:18:39;26.50;48.20
16663;DHT22;8445;51.270;9.434;2023-07-29T15:21:05;26.30;47.90
16663;DHT22;8445;51.270;9.434;2023-07-29T15:23:31;26.00;48.00
16663;DHT22;8445;51.270;9.434;2023-07-29T15:25:57;25.60;48.60
16663;DHT22;8445;51.270;9.434;2023-07-29T15:28:23;25.20;49.30
16663;DHT22;8445;51.270;9.434;2023-07-29T15:30:49;24.90;50.00
16663;DHT22;8445;51.270;9.434;2023-07-29T15:33:15;24.70;50.90
16663;DHT22;8445;51.270;9.434;2023-07-29T15:35:40;24.70;51.40
16663;DHT22;8445;51.270;9.434;2023-07-29T15:38:11;24.80;51.50
16663;DHT22;8445;51.270;9.434;2023-07-29T15:40:41;24.90;52.20
16663;DHT22;8445;51.270;9.434;2023-07-29T15:43:10;25.00;51.20
16663;DHT22;8445;51.270;9.434;2023-07-29T15:45:38;25.10;51.10
16663;DHT22;8445;51.270;9.434;2023-07-29T15:48:07;25.10;50.70
16663;DHT22;8445;51.270;9.434;2023-07-29T15:50:39;25.30;51.00
16663;DHT22;8445;51.270;9.434;2023-07-29T15:53:37;25.40;50.30
16663;DHT22;8445;51.270;9.434;2023-07-29T15:56:13;25.40;50.10
16663;DHT22;8445;51.270;9.434;2023-07-29T15:58:43;25.50;50.00
16663;DHT22;8445;51.270;9.434;2023-07-29T16:01:15;25.50;50.00
16663;DHT22;8445;51.270;9.434;2023-07-29T16:03:55;25.60;49.80
16663;DHT22;8445;51.270;9.434;2023-07-29T16:06:26;25.70;49.60
16663;DHT22;8445;51.270;9.434;2023-07-29T16:09:13;25.70;49.50
16663;DHT22;8445;51.270;9.434;2023-07-29T16:11:42;25.80;49.80
16663;DHT22;8445;51.270;9.434;2023-07-29T16:14:12;25.70;49.00
16663;DHT22;8445;51.270;9.434;2023-07-29T16:16:45;25.60;49.00
16663;DHT22;8445;51.270;9.434;2023-07-29T16:19:22;25.40;49.50
16663;DHT22;8445;51.270;9.434;2023-07-29T16:21:50;25.60;50.00
16663;DHT22;8445;51.270;9.434;2023-07-29T16:24:16;25.70;49.50
16663;DHT22;8445;51.270;9.434;2023-07-29T16:26:48;25.70;49.20
16663;DHT22;8445;51.270;9.434;2023-07-29T16:29:17;25.60;49.20
16663;DHT22;8445;51.270;9.434;2023-07-29T16:31:47;25.60;49.60
16663;DHT22;8445;51.270;9.434;2023-07-29T16:34:14;25.60;49.80
16663;DHT22;8445;51.270;9.434;2023-07-29T16:36:40;25.60;49.40
16663;DHT22;8445;51.270;9.434;2023-07-29T16:39:10;25.60;49.60
16663;DHT22;8445;51.270;9.434;2023-07-29T16:41:38;25.60;49.40
16663;DHT22;8445;51.270;9.434;2023-07-29T16:44:09;25.60;49.70
16663;DHT22;8445;51.270;9.434;2023-07-29T16:46:37;25.70;50.20
16663;DHT22;8445;51.270;9.434;2023-07-29T16:49:05;25.80;50.20
16663;DHT22;8445;51.270;9.434;2023-07-29T16:51:31;25.90;49.50
16663;DHT22;8445;51.270;9.434;2023-07-29T16:53:58;25.70;48.90
16663;DHT22;8445;51.270;9.434;2023-07-29T16:56:24;25.60;49.70
16663;DHT22;8445;51.270;9.434;2023-07-29T16:58:50;25.60;49.90
16663;DHT22;8445;51.270;9.434;2023-07-29T17:01:16;25.60;49.50
16663;DHT22;8445;51.270;9.434;2023-07-29T17:03:41;25.60;48.80
16663;DHT22;8445;51.270;9.434;2023-07-29T17:06:09;25.50;48.90
16663;DHT22;8445;51.270;9.434;2023-07-29T17:08:36;25.40;49.00
16663;DHT22;8445;51.270;9.434;2023-07-29T17:11:02;25.40;49.30
16663;DHT22;8445;51.270;9.434;2023-07-29T17:13:28;25.30;49.20
16663;DHT22;8445;51.270;9.434;2023-07-29T17:15:54;25.20;48.00
16663;DHT22;8445;51.270;9.434;2023-07-29T17:18:19;25.00;47.60
16663;DHT22;8445;51.270;9.434;2023-07-29T17:20:45;24.80;47.30
16663;DHT22;8445;51.270;9.434;2023-07-29T17:23:11;24.70;47.50
16663;DHT22;8445;51.270;9.434;2023-07-29T17:25:37;24.50;47.60
16663;DHT22;8445;51.270;9.434;2023-07-29T17:28:03;24.50;48.60
16663;DHT22;8445;51.270;9.434;2023-07-29T17:30:31;24.60;48.80
16663;DHT22;8445;51.270;9.434;2023-07-29T17:32:57;24.80;48.20
16663;DHT22;8445;51.270;9.434;2023-07-29T17:35:23;25.00;47.70
16663;DHT22;8445;51.270;9.434;2023-07-29T17:37:49;25.00;46.60
16663;DHT22;8445;51.270;9.434;2023-07-29T17:40:15;25.00;46.50
16663;DHT22;8445;51.270;9.434;2023-07-29T17:42:44;25.00;45.90
16663;DHT22;8445;51.270;9.434;2023-07-29T17:45:17;25.00;45.80
16663;DHT22;8445;51.270;9.434;2023-07-29T17:47:43;25.10;45.80
16663;DHT22;8445;51.270;9.434;2023-07-29T17:50:11;25.30;45.70
16663;DHT22;8445;51.270;9.434;2023-07-29T17:52:38;25.40;45.10
16663;DHT22;8445;51.270;9.434;2023-07-29T17:55:04;25.50;44.30
16663;DHT22;8445;51.270;9.434;2023-07-29T17:57:31;25.50;43.80
16663;DHT22;8445;51.270;9.434;2023-07-29T18:00:00;25.40;43.10
16663;DHT22;8445;51.270;9.434;2023-07-29T18:02:30;25.30;43.30
16663;DHT22;8445;51.270;9.434;2023-07-29T18:04:56;25.10;43.50
16663;DHT22;8445;51.270;9.434;2023-07-29T18:07:24;24.80;44.20
16663;DHT22;8445;51.270;9.434;2023-07-29T18:09:50;24.30;44.70
16663;DHT22;8445;51.270;9.434;2023-07-29T18:12:16;24.00;45.50
16663;DHT22;8445;51.270;9.434;2023-07-29T18:14:45;23.60;46.10
16663;DHT22;8445;51.270;9.434;2023-07-29T18:17:11;23.20;46.80
16663;DHT22;8445;51.270;9.434;2023-07-29T18:19:40;22.90;47.60
16663;DHT22;8445;51.270;9.434;2023-07-29T18:22:13;22.70;48.30
16663;DHT22;8445;51.270;9.434;2023-07-29T18:25:11;22.40;49.30
16663;DHT22;8445;51.270;9.434;2023-07-29T18:27:39;22.10;52.40
16663;DHT22;8445;51.270;9.434;2023-07-29T18:30:07;21.90;51.00
16663;DHT22;8445;51.270;9.434;2023-07-29T18:32:34;21.70;51.80
16663;DHT22;8445;51.270;9.434;2023-07-29T18:35:01;21.40;51.90
16663;DHT22;8445;51.270;9.434;2023-07-29T18:37:29;21.30;53.00
16663;DHT22;8445;51.270;9.434;2023-07-29T18:39:55;21.10;53.50
16663;DHT22;8445;51.270;9.434;2023-07-29T18:42:20;20.90;54.10
16663;DHT22;8445;51.270;9.434;2023-07-29T18:44:46;20.70;54.70
16663;DHT22;8445;51.270;9.434;2023-07-29T18:47:12;20.60;55.80
16663;DHT22;8445;51.270;9.434;2023-07-29T18:49:38;20.40;56.10
16663;DHT22;8445;51.270;9.434;2023-07-29T18:52:04;20.30;57.10
16663;DHT22;8445;51.270;9.434;2023-07-29T18:54:30;20.20;57.90
16663;DHT22;8445;51.270;9.434;2023-07-29T18:56:59;20.00;59.30
16663;DHT22;8445;51.270;9.434;2023-07-29T18:59:25;19.90;58.90
16663;DHT22;8445;51.270;9.434;2023-07-29T19:01:51;19.70;61.20
16663;DHT22;8445;51.270;9.434;2023-07-29T19:04:17;19.60;60.80
16663;DHT22;8445;51.270;9.434;2023-07-29T19:06:43;19.50;62.00
16663;DHT22;8445;51.270;9.434;2023-07-29T19:09:09;19.30;62.30
16663;DHT22;8445;51.270;9.434;2023-07-29T19:11:35;19.20;63.60
16663;DHT22;8445;51.270;9.434;2023-07-29T19:14:01;19.10;64.60
16663;DHT22;8445;51.270;9.434;2023-07-29T19:16:28;19.10;66.20
16663;DHT22;8445;51.270;9.434;2023-07-29T19:18:54;18.90;66.80
16663;DHT22;8445;51.270;9.434;2023-07-29T19:21:21;18.90;68.90
16663;DHT22;8445;51.270;9.434;2023-07-29T19:23:48;18.70;69.00
16663;DHT22;8445;51.270;9.434;2023-07-29T19:26:14;18.50;69.50
16663;DHT22;8445;51.270;9.434;2023-07-29T19:28:47;18.50;71.40
16663;DHT22;8445;51.270;9.434;2023-07-29T19:31:14;18.40;72.10
16663;DHT22;8445;51.270;9.434;2023-07-29T19:33:40;18.40;72.10
16663;DHT22;8445;51.270;9.434;2023-07-29T19:36:07;18.40;73.20
16663;DHT22;8445;51.270;9.434;2023-07-29T19:38:33;18.30;73.30
16663;DHT22;8445;51.270;9.434;2023-07-29T19:40:59;18.30;74.70
16663;DHT22;8445;51.270;9.434;2023-07-29T19:43:26;18.30;74.60
16663;DHT22;8445;51.270;9.434;2023-07-29T19:45:52;18.30;75.00
16663;DHT22;8445;51.270;9.434;2023-07-29T19:48:18;18.40;75.70
16663;DHT22;8445;51.270;9.434;2023-07-29T19:50:44;18.30;76.40
16663;DHT22;8445;51.270;9.434;2023-07-29T19:53:11;18.20;77.00
16663;DHT22;8445;51.270;9.434;2023-07-29T19:55:37;18.20;77.60
16663;DHT22;8445;51.270;9.434;2023-07-29T19:58:03;18.10;78.80
16663;DHT22;8445;51.270;9.434;2023-07-29T20:00:28;18.10;78.40
16663;DHT22;8445;51.270;9.434;2023-07-29T20:02:56;18.00;78.60
16663;DHT22;8445;51.270;9.434;2023-07-29T20:05:22;17.90;79.40
16663;DHT22;8445;51.270;9.434;2023-07-29T20:07:47;17.80;79.90
16663;DHT22;8445;51.270;9.434;2023-07-29T20:10:13;17.80;81.30